Time;durP1;ratioP1;P1;durP2;ratioP2;P2;SDS_P1;SDS_P2;PMS_P1;PMS_P2;Temp;Humidity;BMP_temperature;BMP_pressure;BME280_temperature;BME280_humidity;BME280_pressure;Samples;Min_cycle;Max_cycle;Signal;HPM_P1;HPM_P2
2022/11/02 00:00:46;;;;;;;13.93;2.33;;;13.60;86.70;;;;;;4990052;28;20464;-85
2022/11/02 00:03:13;;;;;;;8.50;2.40;;;13.50;86.60;;;;;;4991104;28;20486;-85
2022/11/02 00:05:40;;;;;;;24.93;3.20;;;13.60;85.20;;;;;;4991429;28;20489;-85
2022/11/02 00:08:08;;;;;;;14.63;2.43;;;13.60;85.80;;;;;;4991713;28;20475;-86
2022/11/02 00:10:35;;;;;;;10.63;2.53;;;13.60;86.30;;;;;;4990314;28;20451;-86
2022/11/02 00:13:01;;;;;;;6.80;1.50;;;13.50;88.30;;;;;;4990290;28;20459;-87
2022/11/02 00:15:31;;;;;;;15.43;2.67;;;13.30;89.00;;;;;;4990064;28;20451;-86
2022/11/02 00:18:01;;;;;;;12.00;2.10;;;13.10;90.10;;;;;;4989864;28;20475;-86
2022/11/02 00:20:29;;;;;;;11.70;1.93;;;13.10;88.90;;;;;;4989465;28;20487;-85
2022/11/02 00:23:00;;;;;;;7.33;1.60;;;13.20;88.80;;;;;;4989780;28;20458;-85
2022/11/02 00:25:29;;;;;;;9.80;2.77;;;13.30;87.70;;;;;;4989856;28;20494;-86
2022/11/02 00:27:56;;;;;;;13.83;2.00;;;13.30;87.90;;;;;;4989996;28;20479;-86
2022/11/02 00:30:23;;;;;;;12.13;1.90;;;13.30;87.70;;;;;;4989901;28;20459;-85
2022/11/02 00:32:51;;;;;;;14.77;3.23;;;13.40;87.80;;;;;;4991554;28;20459;-86
2022/11/02 00:35:17;;;;;;;10.87;2.70;;;13.30;87.70;;;;;;4991625;28;20457;-86
2022/11/02 00:37:44;;;;;;;10.03;1.63;;;13.40;87.80;;;;;;4991595;28;20451;-85
2022/11/02 00:40:12;;;;;;;10.63;1.93;;;13.30;88.30;;;;;;4989514;28;20467;-86
2022/11/02 00:42:40;;;;;;;9.93;2.17;;;13.30;87.80;;;;;;4990040;28;20461;-86
2022/11/02 00:45:08;;;;;;;14.77;2.50;;;13.30;87.70;;;;;;4990401;28;20479;-87
2022/11/02 00:47:35;;;;;;;9.17;2.17;;;13.40;87.20;;;;;;4990204;28;20455;-85
2022/11/02 00:50:01;;;;;;;11.33;1.67;;;13.30;87.30;;;;;;4989085;28;20461;-85
2022/11/02 00:52:28;;;;;;;9.90;2.10;;;13.30;87.30;;;;;;4990066;28;20450;-85
2022/11/02 00:54:55;;;;;;;14.43;2.00;;;13.20;87.60;;;;;;4989771;28;20463;-86
2022/11/02 00:57:22;;;;;;;13.47;2.33;;;13.10;87.50;;;;;;4990390;28;20447;-86
2022/11/02 00:59:50;;;;;;;7.83;2.13;;;13.10;88.00;;;;;;4990840;28;20475;-86
2022/11/02 01:02:17;;;;;;;10.00;2.83;;;13.00;88.80;;;;;;4990561;28;20455;-85
2022/11/02 01:04:44;;;;;;;8.80;2.20;;;13.00;89.20;;;;;;4989625;28;20455;-86
2022/11/02 01:07:10;;;;;;;6.30;1.80;;;12.80;89.10;;;;;;4989678;28;20454;-85
2022/11/02 01:09:37;;;;;;;6.33;2.00;;;12.90;89.10;;;;;;4990534;28;20482;-85
2022/11/02 01:12:05;;;;;;;11.10;2.67;;;12.90;89.00;;;;;;4991712;28;20451;-85
2022/11/02 01:14:32;;;;;;;10.43;2.50;;;13.00;88.70;;;;;;4994551;28;20470;-85
2022/11/02 01:17:00;;;;;;;11.40;2.60;;;13.00;88.60;;;;;;4993233;28;20451;-86
2022/11/02 01:19:27;;;;;;;12.10;2.00;;;13.10;88.20;;;;;;4991571;28;20471;-86
2022/11/02 01:21:54;;;;;;;10.37;1.70;;;12.90;88.80;;;;;;4992954;28;20510;-85
2022/11/02 01:24:21;;;;;;;11.73;2.10;;;12.90;88.90;;;;;;4990382;28;20455;-85
2022/11/02 01:26:50;;;;;;;9.57;1.70;;;12.80;89.70;;;;;;4990261;28;20483;-85
2022/11/02 01:29:17;;;;;;;11.27;2.40;;;12.80;90.00;;;;;;4990573;28;20490;-85
2022/11/02 01:31:43;;;;;;;10.13;2.17;;;12.70;89.80;;;;;;4990136;28;20462;-86
2022/11/02 01:34:12;;;;;;;10.97;2.10;;;12.70;90.00;;;;;;4990178;28;20455;-85
2022/11/02 01:36:39;;;;;;;11.43;2.07;;;12.70;90.00;;;;;;4989628;28;20457;-86
2022/11/02 01:39:06;;;;;;;8.80;2.60;;;12.80;90.10;;;;;;4990648;28;20490;-85
2022/11/02 01:41:33;;;;;;;10.57;2.23;;;12.80;90.00;;;;;;4990764;28;20462;-86
2022/11/02 01:44:04;;;;;;;14.37;3.13;;;12.90;89.90;;;;;;4989936;28;20988;-86
2022/11/02 01:46:39;;;;;;;10.07;2.33;;;12.90;89.60;;;;;;4990420;28;20483;-85
2022/11/02 01:49:10;;;;;;;7.50;2.30;;;12.90;89.50;;;;;;4988960;28;20490;-85
2022/11/02 01:51:41;;;;;;;11.20;2.20;;;13.00;89.40;;;;;;4989281;28;20469;-85
2022/11/02 01:54:12;;;;;;;10.17;2.60;;;13.00;89.60;;;;;;4990253;28;20458;-86
2022/11/02 01:56:41;;;;;;;10.70;2.00;;;12.80;89.50;;;;;;4989966;28;20458;-85
2022/11/02 01:59:12;;;;;;;9.67;1.57;;;12.80;89.70;;;;;;4990150;28;20480;-86
2022/11/02 02:01:39;;;;;;;7.27;2.33;;;12.70;90.10;;;;;;4989192;28;20451;-86
2022/11/02 02:04:06;;;;;;;12.27;2.17;;;12.60;90.20;;;;;;4990212;28;20450;-86
2022/11/02 02:06:33;;;;;;;5.53;2.00;;;12.60;90.30;;;;;;4989670;28;20471;-85
2022/11/02 02:09:04;;;;;;;14.03;2.10;;;12.60;90.50;;;;;;4990197;28;20472;-85
2022/11/02 02:11:33;;;;;;;5.83;2.00;;;12.50;90.50;;;;;;4990342;28;20459;-86
2022/11/02 02:14:03;;;;;;;10.97;3.53;;;12.50;90.70;;;;;;4990010;28;20478;-86
2022/11/02 02:16:44;;;;;;;12.20;2.20;;;12.40;90.70;;;;;;4990392;28;20451;-85
2022/11/02 02:19:25;;;;;;;8.90;3.07;;;12.40;90.70;;;;;;4989747;28;20474;-85
2022/11/02 02:22:07;;;;;;;8.07;1.73;;;12.50;90.60;;;;;;4989843;28;20459;-85
2022/11/02 02:24:47;;;;;;;10.53;2.20;;;12.50;90.60;;;;;;4994319;28;20458;-85
2022/11/02 02:27:17;;;;;;;13.90;2.60;;;12.50;90.40;;;;;;4993524;28;20474;-85
2022/11/02 02:30:00;;;;;;;6.40;1.63;;;12.50;90.70;;;;;;4993781;28;20477;-85
2022/11/02 02:32:33;;;;;;;8.03;1.70;;;12.50;90.60;;;;;;4993524;28;20893;-85
2022/11/02 02:35:10;;;;;;;10.93;2.53;;;12.40;91.20;;;;;;4993787;28;20469;-85
2022/11/02 02:37:44;;;;;;;15.83;2.30;;;12.40;90.80;;;;;;4994011;28;20462;-85
2022/11/02 02:40:16;;;;;;;10.30;2.30;;;12.30;91.00;;;;;;4992985;28;20462;-85
2022/11/02 02:42:50;;;;;;;8.03;2.07;;;12.30;91.10;;;;;;4993457;28;20455;-85
2022/11/02 02:45:23;;;;;;;9.10;2.13;;;12.30;90.90;;;;;;4993690;28;20458;-85
2022/11/02 02:47:57;;;;;;;13.20;2.53;;;12.40;90.70;;;;;;4994065;28;20458;-85
2022/11/02 02:50:28;;;;;;;7.90;2.07;;;12.40;90.80;;;;;;4992858;28;20461;-85
2022/11/02 02:52:58;;;;;;;7.70;2.20;;;12.50;90.10;;;;;;4993384;28;20454;-85
2022/11/02 02:55:32;;;;;;;9.20;2.27;;;12.60;90.00;;;;;;4993007;28;20466;-85
2022/11/02 02:58:02;;;;;;;8.67;3.10;;;12.50;90.30;;;;;;4992493;28;20478;-85
2022/11/02 03:00:31;;;;;;;10.90;2.40;;;12.40;90.40;;;;;;4992643;28;20459;-86
2022/11/02 03:03:01;;;;;;;6.63;2.07;;;12.50;90.30;;;;;;4993296;28;20469;-86
2022/11/02 03:05:31;;;;;;;13.90;2.47;;;12.50;90.40;;;;;;4993285;28;20461;-85
2022/11/02 03:08:03;;;;;;;10.07;2.40;;;12.40;90.70;;;;;;4993034;28;20471;-86
2022/11/02 03:10:34;;;;;;;11.43;3.00;;;12.50;90.20;;;;;;4992988;28;20469;-85
2022/11/02 03:13:10;;;;;;;9.63;2.20;;;12.50;90.40;;;;;;4992990;28;20753;-86
2022/11/02 03:15:42;;;;;;;7.07;2.43;;;12.50;90.10;;;;;;4993229;28;20458;-85
2022/11/02 03:18:17;;;;;;;8.03;2.43;;;12.50;90.20;;;;;;4993337;28;20475;-86
2022/11/02 03:20:54;;;;;;;7.93;2.20;;;12.60;89.80;;;;;;4992547;28;20450;-85
2022/11/02 03:23:26;;;;;;;13.10;2.80;;;12.70;89.40;;;;;;4992832;28;20455;-85
2022/11/02 03:25:59;;;;;;;13.40;3.30;;;12.80;89.30;;;;;;4992618;28;20475;-86
2022/11/02 03:28:35;;;;;;;14.40;2.77;;;12.80;88.90;;;;;;4991843;28;20479;-86
2022/11/02 03:31:09;;;;;;;14.10;2.30;;;12.90;88.90;;;;;;4992839;28;20458;-86
2022/11/02 03:33:43;;;;;;;7.20;1.80;;;12.90;89.10;;;;;;4992652;28;20458;-86
2022/11/02 03:36:14;;;;;;;9.20;2.37;;;12.90;89.00;;;;;;4992805;28;20457;-85
2022/11/02 03:38:45;;;;;;;16.40;2.50;;;12.90;87.30;;;;;;4992062;28;20478;-86
2022/11/02 03:41:14;;;;;;;17.57;2.20;;;12.90;87.00;;;;;;4992512;28;20459;-86
2022/11/02 03:43:41;;;;;;;8.17;2.40;;;12.90;85.10;;;;;;4993144;28;20447;-86
2022/11/02 03:46:11;;;;;;;16.40;3.10;;;12.90;84.60;;;;;;4992092;28;20832;-86
2022/11/02 03:48:42;;;;;;;11.60;1.60;;;12.70;84.80;;;;;;4991793;28;20471;-85
2022/11/02 03:51:13;;;;;;;11.53;1.77;;;12.60;85.60;;;;;;4992714;28;20470;-86
2022/11/02 03:53:45;;;;;;;10.60;2.30;;;12.60;85.70;;;;;;4991803;28;20458;-86
2022/11/02 03:56:19;;;;;;;10.10;2.67;;;12.40;86.90;;;;;;4992439;28;20462;-85
2022/11/02 03:58:45;;;;;;;9.57;2.03;;;12.30;86.70;;;;;;4992042;28;20486;-86
2022/11/02 04:01:15;;;;;;;9.17;2.53;;;12.10;87.90;;;;;;4991642;28;20440;-86
2022/11/02 04:03:45;;;;;;;12.60;3.00;;;12.10;89.40;;;;;;4992135;28;20455;-86
2022/11/02 04:06:13;;;;;;;15.50;3.03;;;12.10;89.30;;;;;;4992120;28;20481;-85
2022/11/02 04:08:42;;;;;;;14.80;4.10;;;12.30;90.00;;;;;;4992140;28;20551;-85
2022/11/02 04:19:26;;;;;;;9.27;2.27;;;12.30;90.20;;;;;;4951311;29;20451;-85
2022/11/02 04:19:39;;;;;;;9.23;2.43;;;12.20;90.60;;;;;;4951733;29;20497;-86
2022/11/02 04:27:34;;;;;;;11.77;2.93;;;11.90;91.70;;;;;;4992491;28;20502;-85
2022/11/02 04:30:01;;;;;;;10.90;2.30;;;11.90;91.70;;;;;;4991707;28;20471;-86
2022/11/02 04:35:14;;;;;;;10.00;3.00;;;11.80;91.70;;;;;;4991041;28;20471;-85
2022/11/02 04:40:25;;;;;;;10.10;2.40;;;11.90;91.70;;;;;;5009032;23;20515;-85
2022/11/02 04:42:52;;;;;;;6.57;2.63;;;11.70;91.70;;;;;;4964049;29;20520;-85
2022/11/02 04:45:19;;;;;;;7.67;2.30;;;11.70;91.90;;;;;;4962799;28;20448;-85
2022/11/02 04:47:47;;;;;;;11.73;2.00;;;11.70;91.90;;;;;;4963442;29;20484;-84
2022/11/02 04:50:14;;;;;;;11.67;3.67;;;11.70;92.20;;;;;;4962091;28;20480;-84
2022/11/02 04:52:41;;;;;;;12.67;2.40;;;11.50;92.30;;;;;;4963202;29;20460;-85
2022/11/02 04:55:09;;;;;;;11.93;2.93;;;11.50;93.00;;;;;;4963928;29;20459;-85
2022/11/02 04:57:35;;;;;;;13.37;3.60;;;11.40;92.70;;;;;;4964078;29;20448;-85
2022/11/02 05:00:06;;;;;;;15.60;4.17;;;11.40;92.60;;;;;;4962992;28;20476;-85
2022/11/02 05:02:32;;;;;;;8.50;2.50;;;11.30;92.80;;;;;;4963119;29;20487;-85
2022/11/02 05:05:01;;;;;;;8.33;3.17;;;11.50;92.70;;;;;;4963621;29;20833;-85
2022/11/02 05:07:27;;;;;;;15.33;3.17;;;11.40;92.70;;;;;;4963469;29;20478;-85
2022/11/02 05:09:54;;;;;;;10.10;3.43;;;11.30;92.70;;;;;;4962397;28;20483;-84
2022/11/02 05:12:21;;;;;;;8.37;2.60;;;11.30;92.90;;;;;;4963091;29;20499;-85
2022/11/02 05:14:47;;;;;;;13.77;3.20;;;11.30;92.90;;;;;;4962875;29;20460;-85
2022/11/02 05:17:21;;;;;;;10.10;3.33;;;11.20;92.80;;;;;;4962679;29;20954;-86
2022/11/02 05:19:53;;;;;;;10.33;2.73;;;11.30;92.90;;;;;;4962461;28;20480;-84
2022/11/02 05:22:21;;;;;;;9.53;2.83;;;11.20;92.90;;;;;;4963693;29;20466;-84
2022/11/02 05:25:00;;;;;;;14.20;3.17;;;11.20;92.70;;;;;;4963281;29;20460;-85
2022/11/02 05:27:27;;;;;;;10.63;3.73;;;11.20;92.80;;;;;;4962314;29;20475;-85
2022/11/02 05:29:53;;;;;;;11.10;3.77;;;11.30;92.60;;;;;;4963424;28;20471;-85
2022/11/02 05:32:20;;;;;;;17.27;2.70;;;11.30;92.20;;;;;;4962620;29;20468;-86
2022/11/02 05:34:47;;;;;;;15.03;2.73;;;11.30;92.10;;;;;;4963654;29;21005;-85
2022/11/02 05:37:14;;;;;;;11.47;3.37;;;11.20;92.00;;;;;;4963465;29;20486;-85
2022/11/02 05:39:42;;;;;;;9.87;1.97;;;11.60;91.60;;;;;;4963351;28;20491;-85
2022/11/02 05:42:09;;;;;;;12.53;2.27;;;11.60;92.00;;;;;;4964228;29;20455;-86
2022/11/02 05:44:36;;;;;;;8.23;2.53;;;11.50;91.10;;;;;;4964752;29;20973;-85
2022/11/02 05:47:03;;;;;;;18.47;2.00;;;11.50;91.60;;;;;;4965001;29;20756;-86
2022/11/02 05:49:30;;;;;;;13.40;3.60;;;11.50;91.50;;;;;;4963100;28;20538;-85
2022/11/02 05:51:57;;;;;;;9.83;3.37;;;11.40;91.50;;;;;;4963517;29;20455;-85
2022/11/02 05:54:25;;;;;;;10.17;2.50;;;11.50;91.00;;;;;;4965091;29;20527;-85
2022/11/02 05:56:53;;;;;;;10.50;2.07;;;11.60;90.60;;;;;;4964546;28;21029;-85
2022/11/02 05:59:20;;;;;;;16.53;2.77;;;11.60;90.70;;;;;;4968571;28;20476;-84
2022/11/02 06:01:47;;;;;;;22.00;2.90;;;11.60;90.50;;;;;;4967302;29;20531;-85
2022/11/02 06:04:14;;;;;;;13.23;2.70;;;11.70;90.40;;;;;;4967047;29;20456;-84
2022/11/02 06:06:41;;;;;;;16.97;2.93;;;11.60;90.50;;;;;;4967471;29;20910;-85
2022/11/02 06:09:08;;;;;;;10.17;2.30;;;11.60;90.60;;;;;;4967226;28;20570;-85
2022/11/02 06:11:35;;;;;;;11.70;2.20;;;11.40;90.70;;;;;;4966659;29;20466;-84
2022/11/02 06:14:03;;;;;;;18.67;2.57;;;11.40;90.90;;;;;;4958185;29;20451;-83
2022/11/02 06:16:30;;;;;;;12.33;2.27;;;11.50;90.80;;;;;;4959128;29;20483;-84
2022/11/02 06:18:57;;;;;;;8.27;2.60;;;11.40;91.30;;;;;;4957765;28;20475;-84
2022/11/02 06:21:24;;;;;;;8.67;2.00;;;11.20;91.50;;;;;;4957783;29;20460;-84
2022/11/02 06:23:51;;;;;;;14.10;2.70;;;11.30;91.50;;;;;;4957392;29;20456;-84
2022/11/02 06:26:18;;;;;;;9.80;1.73;;;11.30;91.50;;;;;;4957543;29;20455;-84
2022/11/02 06:28:44;;;;;;;16.80;2.60;;;11.20;91.50;;;;;;4957448;28;20854;-84
2022/11/02 06:31:15;;;;;;;8.30;2.23;;;11.30;91.50;;;;;;4957101;29;20460;-84
2022/11/02 06:33:41;;;;;;;14.37;2.60;;;11.30;91.50;;;;;;4957340;29;20550;-84
2022/11/02 06:36:09;;;;;;;7.20;2.73;;;11.30;91.50;;;;;;4957304;29;20466;-84
2022/11/02 06:38:37;;;;;;;12.33;2.43;;;11.40;91.50;;;;;;4956993;28;21054;-83
2022/11/02 06:41:05;;;;;;;12.50;2.20;;;11.40;91.50;;;;;;4957169;29;20460;-84
2022/11/02 06:43:32;;;;;;;8.57;2.30;;;11.40;91.50;;;;;;4957258;29;20456;-84
2022/11/02 06:45:59;;;;;;;10.63;2.53;;;11.40;91.50;;;;;;4956556;29;20456;-84
2022/11/02 06:48:28;;;;;;;10.23;2.17;;;11.50;91.60;;;;;;4956473;28;20486;-83
2022/11/02 06:50:55;;;;;;;10.47;2.33;;;11.50;91.60;;;;;;4956953;29;20942;-84
2022/11/02 06:53:21;;;;;;;13.67;2.40;;;11.40;91.50;;;;;;4957051;29;20830;-84
2022/11/02 06:55:52;;;;;;;15.40;2.53;;;11.50;91.60;;;;;;4956986;29;20456;-84
2022/11/02 06:58:19;;;;;;;14.33;3.50;;;11.40;91.50;;;;;;4956646;29;20482;-83
2022/11/02 07:00:45;;;;;;;16.27;2.80;;;11.50;91.60;;;;;;4956406;28;20475;-83
2022/11/02 07:03:12;;;;;;;11.97;2.90;;;11.50;91.60;;;;;;4956504;29;20455;-83
2022/11/02 07:05:40;;;;;;;12.77;2.50;;;11.50;91.60;;;;;;4956828;29;20462;-83
2022/11/02 07:08:07;;;;;;;7.77;2.40;;;11.50;91.60;;;;;;4956126;28;20480;-83
2022/11/02 07:10:35;;;;;;;16.70;2.73;;;11.50;91.10;;;;;;4956288;28;20475;-83
2022/11/02 07:13:02;;;;;;;29.20;3.27;;;11.60;91.20;;;;;;4956283;29;20950;-84
2022/11/02 07:15:28;;;;;;;10.57;1.80;;;11.60;90.90;;;;;;4956415;29;20845;-83
2022/11/02 07:17:55;;;;;;;11.80;2.10;;;11.70;90.50;;;;;;4956533;29;20836;-83
2022/11/02 07:20:22;;;;;;;10.43;2.47;;;11.60;90.50;;;;;;4956373;28;20476;-83
2022/11/02 07:22:54;;;;;;;9.27;2.40;;;11.60;91.00;;;;;;4956343;29;20463;-84
2022/11/02 07:25:21;;;;;;;12.40;2.43;;;11.60;90.90;;;;;;4956333;29;20462;-83
2022/11/02 07:27:47;;;;;;;14.33;2.30;;;11.60;91.20;;;;;;4956782;29;20849;-84
2022/11/02 07:30:14;;;;;;;9.67;2.37;;;11.70;90.30;;;;;;4956009;28;20490;-84
2022/11/02 07:32:41;;;;;;;9.83;2.10;;;11.70;90.60;;;;;;4955900;29;20456;-84
2022/11/02 07:35:10;;;;;;;10.53;1.90;;;11.70;90.50;;;;;;4956253;29;20455;-84
2022/11/02 07:37:37;;;;;;;10.97;2.43;;;11.80;90.30;;;;;;4955823;29;21231;-84
2022/11/02 07:40:06;;;;;;;11.57;3.13;;;11.80;90.40;;;;;;4955787;28;20487;-83
2022/11/02 07:42:33;;;;;;;11.37;2.60;;;11.90;90.20;;;;;;4955555;29;20459;-84
2022/11/02 07:45:00;;;;;;;13.30;2.40;;;11.90;90.10;;;;;;4955746;29;20455;-84
2022/11/02 07:47:27;;;;;;;10.40;2.17;;;11.90;90.20;;;;;;4955777;29;20507;-84
2022/11/02 07:49:54;;;;;;;14.00;2.00;;;11.90;90.20;;;;;;4955441;28;20482;-84
2022/11/02 07:52:20;;;;;;;11.20;2.07;;;11.90;90.20;;;;;;4955624;29;20463;-84
2022/11/02 07:54:47;;;;;;;13.97;2.07;;;12.00;90.20;;;;;;4955640;29;20466;-83
2022/11/02 07:57:15;;;;;;;11.17;2.20;;;12.00;90.10;;;;;;4954300;28;20452;-84
2022/11/02 07:59:42;;;;;;;12.40;2.07;;;12.00;90.10;;;;;;4956124;29;20834;-84
2022/11/02 08:02:12;;;;;;;8.50;2.20;;;12.10;90.10;;;;;;4955436;29;20460;-84
2022/11/02 08:04:39;;;;;;;12.10;2.00;;;12.10;89.90;;;;;;4957028;29;20456;-84
2022/11/02 08:07:05;;;;;;;8.30;2.23;;;12.10;90.50;;;;;;4957510;28;20475;-84
2022/11/02 08:09:32;;;;;;;10.63;2.20;;;12.20;90.00;;;;;;4954794;29;20480;-84
2022/11/02 08:11:59;;;;;;;14.73;2.17;;;12.20;90.30;;;;;;4954773;28;20482;-83
2022/11/02 08:14:27;;;;;;;18.80;2.07;;;12.40;88.70;;;;;;4955023;29;20456;-84
2022/11/02 08:16:54;;;;;;;14.27;2.40;;;12.40;88.90;;;;;;4955084;28;20456;-84
2022/11/02 08:19:20;;;;;;;9.63;2.20;;;12.50;89.30;;;;;;4955131;28;20480;-85
2022/11/02 08:21:47;;;;;;;11.03;1.90;;;12.50;90.00;;;;;;4955424;29;20460;-84
2022/11/02 08:24:14;;;;;;;12.83;2.33;;;12.50;89.30;;;;;;4955422;29;20462;-84
2022/11/02 08:26:41;;;;;;;9.40;1.90;;;12.60;88.90;;;;;;4955922;29;20955;-84
2022/11/02 08:29:07;;;;;;;11.27;2.40;;;12.60;88.80;;;;;;4956052;29;20483;-84
2022/11/02 08:31:35;;;;;;;14.03;2.57;;;12.70;88.80;;;;;;4954893;29;20456;-85
2022/11/02 08:34:02;;;;;;;13.87;2.77;;;12.70;89.00;;;;;;4956134;29;20467;-85
2022/11/02 08:36:29;;;;;;;12.70;2.47;;;12.70;87.80;;;;;;4957858;29;20454;-82
2022/11/02 08:38:55;;;;;;;11.93;2.00;;;12.70;88.60;;;;;;4955549;29;20484;-84
2022/11/02 08:41:22;;;;;;;10.17;2.47;;;12.80;87.50;;;;;;4954903;29;20942;-84
2022/11/02 08:43:49;;;;;;;12.50;2.07;;;12.80;88.00;;;;;;4955080;29;20492;-84
2022/11/02 08:46:16;;;;;;;8.03;2.27;;;12.70;87.90;;;;;;4955284;29;20483;-84
2022/11/02 08:48:44;;;;;;;9.27;1.93;;;12.80;88.80;;;;;;4954599;29;20484;-84
2022/11/02 08:51:11;;;;;;;13.33;2.20;;;12.80;88.30;;;;;;4955182;29;20515;-84
2022/11/02 08:53:37;;;;;;;19.77;1.77;;;12.90;88.30;;;;;;4956457;29;20840;-84
2022/11/02 08:56:04;;;;;;;10.57;2.30;;;12.90;88.20;;;;;;4954989;29;20462;-84
2022/11/02 08:58:31;;;;;;;15.43;2.07;;;12.90;87.30;;;;;;4954579;29;20452;-84
2022/11/02 09:00:58;;;;;;;15.43;2.80;;;12.90;87.30;;;;;;4954188;29;20876;-84
2022/11/02 09:03:25;;;;;;;20.20;2.30;;;12.90;87.30;;;;;;4954689;28;20468;-84
2022/11/02 09:05:58;;;;;;;16.70;2.23;;;13.00;87.50;;;;;;4954618;29;20460;-84
2022/11/02 09:08:25;;;;;;;11.23;2.47;;;13.00;86.20;;;;;;4954364;29;20843;-84
2022/11/02 09:10:52;;;;;;;8.47;1.40;;;13.00;87.40;;;;;;4954104;29;20511;-84
2022/11/02 09:13:23;;;;;;;16.90;2.43;;;12.90;86.90;;;;;;4954284;28;20463;-84
2022/11/02 09:15:51;;;;;;;13.83;3.33;;;13.10;87.50;;;;;;4954561;29;20993;-84
2022/11/02 09:18:18;;;;;;;7.13;1.70;;;13.10;86.70;;;;;;4954617;28;20460;-85
2022/11/02 09:20:47;;;;;;;6.97;2.13;;;13.10;86.00;;;;;;4954135;29;20456;-84
2022/11/02 09:23:15;;;;;;;17.00;2.60;;;13.20;85.80;;;;;;4954104;29;21001;-84
2022/11/02 09:25:42;;;;;;;12.30;2.27;;;13.30;84.50;;;;;;4954182;29;20463;-85
2022/11/02 09:28:09;;;;;;;16.67;3.00;;;13.50;84.40;;;;;;4954256;29;20510;-84
2022/11/02 09:30:35;;;;;;;10.90;2.10;;;13.30;82.80;;;;;;4953838;28;20480;-84
2022/11/02 09:33:04;;;;;;;16.00;2.60;;;13.40;83.40;;;;;;4954200;29;20455;-84
2022/11/02 09:35:33;;;;;;;14.77;2.60;;;13.60;80.20;;;;;;4954687;28;20466;-84
2022/11/02 09:38:00;;;;;;;8.07;2.00;;;13.70;80.30;;;;;;4961236;29;20451;-84
2022/11/02 09:40:31;;;;;;;9.40;1.80;;;13.80;80.40;;;;;;4953579;29;20488;-85
2022/11/02 09:43:06;;;;;;;9.90;1.73;;;14.20;79.90;;;;;;4954312;29;20460;-84
2022/11/02 09:45:36;;;;;;;9.30;3.03;;;14.50;77.10;;;;;;4953900;29;20455;-84
2022/11/02 09:48:07;;;;;;;11.13;2.50;;;14.80;76.30;;;;;;4953991;29;20955;-85
2022/11/02 09:50:42;;;;;;;19.60;2.40;;;15.00;74.10;;;;;;4953322;28;20562;-84
2022/11/02 09:53:12;;;;;;;17.20;2.37;;;15.10;72.60;;;;;;4954130;29;20463;-85
2022/11/02 09:55:56;;;;;;;11.47;2.93;;;15.40;74.00;;;;;;4954129;29;20463;-85
2022/11/02 09:58:32;;;;;;;18.93;2.60;;;15.50;70.90;;;;;;4953743;29;20472;-84
2022/11/02 10:01:08;;;;;;;14.43;2.37;;;15.90;70.70;;;;;;4953413;28;20461;-84
2022/11/02 10:03:47;;;;;;;14.40;2.00;;;15.90;68.90;;;;;;4954396;29;20466;-85
2022/11/02 10:06:18;;;;;;;13.57;1.90;;;16.20;69.20;;;;;;4953751;28;20462;-85
2022/11/02 10:08:53;;;;;;;9.60;2.37;;;16.10;68.00;;;;;;4953567;29;20492;-85
2022/11/02 10:11:44;;;;;;;7.03;1.97;;;16.30;69.60;;;;;;4953386;29;20459;-85
2022/11/02 10:14:15;;;;;;;12.77;1.80;;;16.50;68.00;;;;;;4954405;29;20463;-85
2022/11/02 10:16:49;;;;;;;15.97;2.80;;;16.50;67.40;;;;;;4953867;29;20464;-85
2022/11/02 10:19:19;;;;;;;7.77;1.97;;;16.30;63.20;;;;;;4953688;29;20479;-85
2022/11/02 10:21:49;;;;;;;11.53;1.80;;;16.60;63.50;;;;;;4953186;29;20460;-85
2022/11/02 10:24:25;;;;;;;12.60;2.77;;;16.60;64.70;;;;;;4956407;29;21012;-85
2022/11/02 10:26:56;;;;;;;12.73;2.20;;;16.80;61.60;;;;;;4953540;29;20458;-85
2022/11/02 10:29:37;;;;;;;17.37;1.93;;;17.30;61.00;;;;;;4953493;29;20517;-85
2022/11/02 10:32:04;;;;;;;10.57;1.90;;;17.20;59.30;;;;;;4953235;29;20465;-85
2022/11/02 10:34:33;;;;;;;10.80;1.93;;;16.90;59.00;;;;;;4953404;29;20460;-85
2022/11/02 10:37:12;;;;;;;10.57;2.07;;;17.10;58.20;;;;;;4953564;29;20462;-85
2022/11/02 10:39:51;;;;;;;9.00;1.40;;;17.00;57.30;;;;;;4978304;23;20485;-85
2022/11/02 10:42:38;;;;;;;12.33;2.20;;;16.80;56.30;;;;;;4953500;28;20458;-84
2022/11/02 10:45:21;;;;;;;9.83;1.60;;;17.00;56.90;;;;;;4957507;29;20463;-84
2022/11/02 10:48:01;;;;;;;10.90;1.40;;;17.30;55.50;;;;;;4957268;29;20507;-84
2022/11/02 10:50:40;;;;;;;11.57;1.67;;;17.60;55.50;;;;;;4957128;29;20501;-84
2022/11/02 10:53:13;;;;;;;17.03;1.60;;;17.90;53.70;;;;;;4957535;29;20470;-85
2022/11/02 10:55:50;;;;;;;15.17;2.33;;;17.60;49.10;;;;;;4957530;29;20504;-84
2022/11/02 10:58:21;;;;;;;9.90;2.40;;;17.60;51.00;;;;;;4957222;29;20462;-85
2022/11/02 11:00:49;;;;;;;9.27;1.90;;;17.40;50.10;;;;;;4957284;29;20485;-84
2022/11/02 11:03:18;;;;;;;4.63;1.30;;;17.70;48.70;;;;;;4957306;29;20464;-84
2022/11/02 11:05:58;;;;;;;12.20;2.40;;;17.50;48.40;;;;;;4957391;29;20456;-84
2022/11/02 11:08:36;;;;;;;6.40;1.73;;;17.50;47.40;;;;;;4957266;29;20586;-84
2022/11/02 11:11:11;;;;;;;7.93;1.60;;;17.30;46.30;;;;;;4957095;29;20482;-85
2022/11/02 11:13:41;;;;;;;5.10;1.33;;;17.40;47.90;;;;;;4957025;29;20457;-84
2022/11/02 11:16:09;;;;;;;7.30;1.80;;;17.90;46.90;;;;;;4957141;29;20459;-85
2022/11/02 11:18:37;;;;;;;7.80;1.80;;;18.20;47.90;;;;;;4957143;29;20457;-84
2022/11/02 11:21:05;;;;;;;12.53;1.87;;;18.30;47.80;;;;;;4957376;29;20509;-85
2022/11/02 11:23:31;;;;;;;13.40;1.87;;;18.30;47.80;;;;;;4957152;29;20459;-83
2022/11/02 11:26:00;;;;;;;7.40;1.90;;;18.80;47.10;;;;;;4957223;29;20465;-84
2022/11/02 11:28:30;;;;;;;9.87;1.70;;;19.40;46.10;;;;;;4961617;29;21052;-84
2022/11/02 11:31:14;;;;;;;10.90;1.87;;;19.50;43.90;;;;;;4957110;29;20860;-85
2022/11/02 11:33:47;;;;;;;11.10;2.97;;;19.30;43.70;;;;;;4959337;29;20455;-85
2022/11/02 11:36:23;;;;;;;9.63;1.73;;;19.80;43.30;;;;;;4958391;29;20462;-84
2022/11/02 11:38:52;;;;;;;9.80;3.00;;;19.70;41.20;;;;;;4958794;29;20815;-84
2022/11/02 11:41:19;;;;;;;17.17;2.40;;;19.50;41.00;;;;;;4956471;29;20502;-84
2022/11/02 11:43:47;;;;;;;11.03;3.00;;;19.30;42.00;;;;;;4957213;29;20468;-84
2022/11/02 11:46:17;;;;;;;11.10;1.80;;;18.90;39.70;;;;;;4956361;29;20466;-84
2022/11/02 11:48:48;;;;;;;12.83;1.70;;;18.90;42.80;;;;;;4955768;29;20511;-85
2022/11/02 11:51:30;;;;;;;12.23;1.90;;;18.90;44.10;;;;;;4956482;29;20484;-84
2022/11/02 11:54:18;;;;;;;10.93;1.47;;;18.40;45.00;;;;;;4954929;28;20480;-84
2022/11/02 11:56:45;;;;;;;9.10;2.10;;;17.60;46.50;;;;;;4956132;28;20462;-84
2022/11/02 11:59:27;;;;;;;11.47;2.10;;;17.40;48.90;;;;;;4956900;29;20454;-84
2022/11/02 12:01:58;;;;;;;13.63;1.80;;;18.00;48.40;;;;;;4956272;29;20500;-84
2022/11/02 12:04:30;;;;;;;11.20;2.03;;;17.50;48.00;;;;;;4955751;29;20469;-84
2022/11/02 12:07:23;;;;;;;12.73;1.90;;;17.00;47.80;;;;;;4956361;29;20475;-84
2022/11/02 12:10:01;;;;;;;9.73;1.97;;;16.70;51.20;;;;;;4955952;28;20479;-84
2022/11/02 12:12:44;;;;;;;8.73;1.90;;;16.10;53.90;;;;;;4956739;28;20456;-84
2022/11/02 12:15:25;;;;;;;6.37;1.70;;;15.90;57.00;;;;;;4956266;29;20475;-83
2022/11/02 12:18:07;;;;;;;10.27;2.40;;;15.90;57.50;;;;;;4956017;29;20465;-83
2022/11/02 12:20:59;;;;;;;12.10;2.10;;;15.90;58.00;;;;;;4954418;29;20476;-84
2022/11/02 12:23:39;;;;;;;11.30;2.07;;;15.80;59.40;;;;;;4955749;29;20478;-84
2022/11/02 12:26:16;;;;;;;9.00;1.67;;;15.60;60.00;;;;;;4955884;29;20469;-83
2022/11/02 12:28:50;;;;;;;14.03;2.40;;;15.30;59.60;;;;;;4956370;28;20494;-84
2022/11/02 12:31:30;;;;;;;12.97;2.60;;;15.90;58.00;;;;;;4955932;28;20480;-84
2022/11/02 12:34:14;;;;;;;9.83;2.20;;;16.60;54.50;;;;;;4955429;29;20466;-84
2022/11/02 12:36:53;;;;;;;10.30;1.57;;;17.20;51.20;;;;;;4955357;29;20979;-84
2022/11/02 12:39:29;;;;;;;10.80;2.03;;;17.00;49.20;;;;;;4955524;29;20461;-84
2022/11/02 12:42:14;;;;;;;10.50;2.33;;;17.40;50.80;;;;;;4955489;29;20460;-84
2022/11/02 12:45:00;;;;;;;9.67;2.10;;;18.00;48.90;;;;;;4954120;28;20462;-84
2022/11/02 12:47:45;;;;;;;15.50;3.20;;;18.10;47.70;;;;;;4955327;29;20468;-84
2022/11/02 12:50:21;;;;;;;10.20;1.97;;;18.50;44.80;;;;;;4955075;29;20490;-83
2022/11/02 12:52:58;;;;;;;11.30;4.40;;;18.90;43.40;;;;;;4954806;29;20469;-84
2022/11/02 12:55:30;;;;;;;17.07;2.47;;;18.50;42.90;;;;;;4953844;28;20497;-83
2022/11/02 12:58:01;;;;;;;12.63;2.73;;;18.50;44.80;;;;;;4955251;28;20980;-84
2022/11/02 13:00:28;;;;;;;9.73;1.97;;;18.30;46.00;;;;;;4955532;29;20482;-84
2022/11/02 13:02:59;;;;;;;9.70;2.10;;;18.30;46.20;;;;;;4955159;28;20463;-84
2022/11/02 13:05:32;;;;;;;9.90;1.47;;;18.50;47.30;;;;;;4955042;28;20456;-84
2022/11/02 13:08:11;;;;;;;8.20;1.77;;;17.90;45.80;;;;;;4956166;29;20469;-84
2022/11/02 13:10:44;;;;;;;10.03;2.27;;;17.70;47.60;;;;;;4954891;29;21009;-85
2022/11/02 13:13:14;;;;;;;11.47;2.40;;;17.50;49.90;;;;;;4955280;29;20990;-84